»·PEaware :: AAL491 KLAX-KPHX

AAL491 :: KLAX-KPHX

FLIGHT INFORMATION

Flight Status: Arrived
Operator:
American Airlines
More flights by this operator :: More flights under this callsign
Pilot: Ben W. (5837)
Aircraft: AIRBUS A320
(A320)
More flights by this aircraft type
Origin: KLAX Los Angeles Intl
United States
Destination: KPHX Phoenix Sky Harbor Intl
United States
More flights between these airports :: More routes between these airports
Route: DOTSS2 CNERY BLH HYDRR1
File this flight plan on PilotEdge
Remarks:
Altitude:
(Current/Filed)
35,000ft
Speed:
(Current/Filed)
440kts
Departed: 22-Apr-18 02:14 PM
Arrived: 22-Apr-18 03:14 PM
Distance/Time
Traveled:
321nm/1:00
Distance/Time
To Go:
Arrived

Flight Plot

Page will automatically refresh every two minutes.

Flight plan parsing failed; only flown route is shown


Map Options




Map Legend


Flown Route
Filed Route
Departure Airport
Arrival Airport
Navaid (VOR, NDB)
Fix

Horizontal Profiles

Position Reports

Time Latitude Longitude Heading Altitude Ground
Speed
22-Apr-18 13:28 33.939464 -118.407195 42 112ft 0kts
22-Apr-18 13:29 33.939464 -118.407195 42 112ft 0kts
22-Apr-18 13:30 33.939464 -118.407195 42 112ft 0kts
22-Apr-18 13:31 33.939464 -118.407196 42 112ft 0kts
22-Apr-18 13:32 33.939464 -118.407196 42 112ft 0kts
22-Apr-18 13:33 33.939464 -118.407196 42 112ft 0kts
22-Apr-18 13:34 33.939464 -118.407196 42 112ft 0kts
22-Apr-18 13:35 33.939464 -118.407196 42 112ft 0kts
22-Apr-18 13:36 33.939464 -118.407196 42 112ft 0kts
22-Apr-18 13:37 33.939464 -118.407196 42 112ft 0kts
22-Apr-18 13:38 33.939464 -118.407196 42 112ft 0kts
22-Apr-18 13:39 33.939464 -118.407196 42 112ft 0kts
22-Apr-18 13:40 33.939464 -118.407196 42 112ft 0kts
22-Apr-18 13:41 33.939464 -118.407196 42 112ft 0kts
22-Apr-18 13:42 33.939464 -118.407196 42 112ft 0kts
22-Apr-18 13:43 33.939464 -118.407196 42 112ft 0kts
22-Apr-18 13:44 33.939464 -118.407196 42 112ft 0kts
22-Apr-18 13:45 33.939464 -118.407196 42 112ft 0kts
22-Apr-18 13:46 33.939464 -118.407196 42 112ft 0kts
22-Apr-18 13:47 33.939464 -118.407196 42 112ft 0kts
22-Apr-18 13:48 33.939464 -118.407196 42 112ft 0kts
22-Apr-18 13:49 33.939464 -118.407196 42 112ft 0kts
22-Apr-18 13:50 33.939464 -118.407196 42 112ft 0kts
22-Apr-18 13:51 33.939464 -118.407196 42 112ft 0kts
22-Apr-18 13:52 33.939316 -118.407699 101 112ft 2kts
22-Apr-18 13:53 33.939708 -118.408160 173 112ft 2kts
22-Apr-18 13:54 33.939966 -118.408188 174 112ft 0kts
22-Apr-18 13:55 33.939966 -118.408188 174 112ft 0kts
22-Apr-18 13:56 33.939966 -118.408188 174 112ft 0kts
22-Apr-18 13:57 33.939614 -118.408142 173 112ft 0kts
22-Apr-18 13:58 33.939609 -118.408141 173 112ft 0kts
22-Apr-18 13:59 33.939609 -118.408141 173 112ft 0kts
22-Apr-18 14:00 33.939609 -118.408141 173 112ft 0kts
22-Apr-18 14:01 33.939609 -118.408141 173 112ft 0kts
22-Apr-18 14:02 33.939609 -118.408141 173 112ft 0kts
22-Apr-18 14:03 33.939609 -118.408141 173 112ft 0kts
22-Apr-18 14:04 33.939609 -118.408141 173 112ft 0kts
22-Apr-18 14:05 33.939609 -118.408141 173 112ft 0kts
22-Apr-18 14:06 33.939609 -118.408141 173 112ft 0kts
22-Apr-18 14:07 33.938946 -118.406439 83 112ft 13kts
22-Apr-18 14:08 33.939484 -118.401087 83 112ft 17kts
22-Apr-18 14:09 33.940138 -118.394688 83 112ft 21kts
22-Apr-18 14:10 33.940822 -118.387212 83 112ft 24kts
22-Apr-18 14:11 33.940513 -118.383343 173 112ft 0kts
22-Apr-18 14:12 33.940494 -118.383340 174 112ft 1kts
22-Apr-18 14:13 33.939169 -118.386499 263 112ft 76kts
22-Apr-18 14:14 33.933664 -118.443832 262 2527ft 212kts
22-Apr-18 14:15 33.897984 -118.509988 231 5105ft 266kts
22-Apr-18 14:16 33.837087 -118.559228 171 8387ft 292kts
22-Apr-18 14:17 33.755695 -118.536986 167 11214ft 329kts
22-Apr-18 14:18 33.681383 -118.470193 109 12052ft 366kts
22-Apr-18 14:19 33.650140 -118.362422 108 13550ft 381kts
22-Apr-18 14:20 33.644552 -118.235924 89 15924ft 394kts
22-Apr-18 14:21 33.644634 -118.114264 89 17482ft 405kts
22-Apr-18 14:22 33.644518 -117.986610 89 19284ft 418kts
22-Apr-18 14:23 33.644257 -117.855638 89 20943ft 429kts
22-Apr-18 14:24 33.625326 -117.718659 106 22484ft 441kts
22-Apr-18 14:25 33.591026 -117.579805 106 23942ft 452kts
22-Apr-18 14:26 33.556257 -117.439519 106 25223ft 462kts
22-Apr-18 14:27 33.523068 -117.306319 107 26333ft 471kts
22-Apr-18 14:28 33.503649 -117.155696 90 27453ft 479kts
22-Apr-18 14:29 33.501689 -116.999612 89 28583ft 484kts
22-Apr-18 14:30 33.499396 -116.843944 89 30344ft 472kts
22-Apr-18 14:31 33.496879 -116.688678 89 31488ft 474kts
22-Apr-18 14:32 33.494336 -116.542390 89 32561ft 474kts
22-Apr-18 14:33 33.491589 -116.388996 89 33618ft 474kts
22-Apr-18 14:34 33.489481 -116.243862 89 34575ft 473kts
22-Apr-18 14:35 33.487021 -116.090963 89 34949ft 470kts
22-Apr-18 14:36 33.512738 -115.942730 68 34949ft 466kts
22-Apr-18 14:37 33.554660 -115.799652 68 34949ft 466kts
22-Apr-18 14:38 33.596530 -115.655598 68 34950ft 466kts
22-Apr-18 14:39 33.627823 -115.508059 89 34959ft 472kts
22-Apr-18 14:40 33.612421 -115.354561 90 34991ft 473kts
22-Apr-18 14:41 33.608559 -115.208916 90 35002ft 471kts
22-Apr-18 14:42 33.604478 -115.056384 90 35003ft 469kts
22-Apr-18 14:43 33.600249 -114.904794 91 35009ft 466kts
22-Apr-18 14:44 33.594291 -114.755712 98 35016ft 451kts
22-Apr-18 14:45 33.568539 -114.619046 102 34619ft 417kts
22-Apr-18 14:46 33.543044 -114.488432 102 33013ft 405kts
22-Apr-18 14:47 33.518231 -114.361991 101 31421ft 394kts
22-Apr-18 14:48 33.506424 -114.302069 102 30609ft 391kts
22-Apr-18 14:49 33.482530 -114.181364 102 28535ft 394kts
22-Apr-18 14:50 33.458535 -114.060743 102 26189ft 368kts
22-Apr-18 14:51 33.436119 -113.949040 102 24106ft 342kts
22-Apr-18 14:52 33.414061 -113.839235 102 23428ft 343kts
22-Apr-18 14:53 33.392165 -113.730703 102 22736ft 338kts
22-Apr-18 14:54 33.370586 -113.624240 102 22061ft 334kts
22-Apr-18 14:55 33.346717 -113.506761 102 21587ft 414kts
22-Apr-18 14:56 33.321331 -113.368810 100 19174ft 446kts
22-Apr-18 14:57 33.301156 -113.252034 101 16721ft 438kts
22-Apr-18 14:58 33.283219 -113.131039 99 15347ft 363kts
22-Apr-18 14:59 33.275588 -113.021847 87 14440ft 326kts
22-Apr-18 15:00 33.278200 -112.917344 88 12837ft 317kts
22-Apr-18 15:01 33.282570 -112.817327 72 11709ft 297kts
22-Apr-18 15:02 33.314573 -112.730580 65 10529ft 284kts
22-Apr-18 15:03 33.344828 -112.650563 65 9714ft 264kts
22-Apr-18 15:04 33.374285 -112.573467 65 8601ft 259kts
22-Apr-18 15:05 33.402465 -112.499499 65 7995ft 241kts
22-Apr-18 15:06 33.426280 -112.427077 78 7078ft 239kts
22-Apr-18 15:07 33.429823 -112.349523 91 5989ft 243kts
22-Apr-18 15:08 33.429250 -112.280833 90 5164ft 240kts
22-Apr-18 15:09 33.429157 -112.205883 90 4054ft 214kts
22-Apr-18 15:10 33.429017 -112.142678 89 3015ft 171kts
22-Apr-18 15:11 33.428940 -112.092011 90 2199ft 151kts
22-Apr-18 15:12 33.428861 -112.043204 89 1386ft 149kts
22-Apr-18 15:13 33.428955 -112.006083 81 1118ft 29kts
22-Apr-18 15:14 33.429833 -112.004082 61 1118ft 1kts
22-Apr-18 15:15 33.431521 -112.003204 355 1118ft 8kts
22-Apr-18 15:16 33.432855 -112.002499 90 1118ft 12kts
22-Apr-18 15:17 33.433229 -111.998268 10 1118ft 13kts
22-Apr-18 15:18 33.434049 -111.997322 90 1118ft 0kts

Navigation Log

Ident Type
Flight plan parsing failed, navigation log unavailable